Aérodrome :
LOGIN :

S'inscrire | Disclaimer

   EN    FR    IT 

 










Légende :    VFR   VFR Marginal   IFR   IFR Intensif   IFR Très Intensif
Visi : 
Plafond : 
>= 8 km
>= 3000ft
5 à 8 km
1000 à 3000 ft
1500m à 5 km
500 à 1000 ft
800 à 1500m
200 à 500 ft
< 800m
< 200 ft
Symboles :   Orages  Brouillard  Fortes neiges  Fortes précipitations  Vent > 20 kt
SIGMETs :   Divers  Orages  Givrage  Turbulence  Onde Orograph.  Cendres Volcan.






- Altitude de l'aérodrome : 2220 ft


LOXZ - Zeltweg AB

DERNIER METAR :
  • 191650Z 31004KT 20KM FEW050SC BKN210AC 15/09 Q1014

METARs EXPIRÉS :
  • 191620Z 24003KT 170V280 30KM FEW050CU SCT120AC BKN300CI 16/09 Q1014 NOSIG
  • 191550Z VRB02KT 30KM FEW050CU SCT120AC BKN300CI 16/09 Q1014 NOSIG
  • 191520Z 21006KT 160V250 30KM FEW050CU SCT120AC BKN300CI 17/09 Q1014 NOSIG
  • 191450Z 20010KT 170V230 30KM FEW050CU SCT120AC BKN300CI 17/09 Q1014 NOSIG
  • 191420Z 21010KT 180V250 30KM FEW050CU SCT300CI 18/09 Q1014 NOSIG
  • 191350Z 20012KT 160V220 30KM FEW050CU SCT300CI 18/09 Q1013 NOSIG

TAF TAF LOXZ
Valide du 19 à 15h jusqu'au 20 à 00h UTC


191415Z 1915/1924 20012KT 9999 FEW045 BKN300



MET'MAP, la Météo Aéronautique d'un coup d'oeil ! - Copyright ORBIFLY Décembre 2007 - Disclaimer

ORBIFLY MET'MAP TEAM :

Programmation & Développement : Alexandra Zaïnal
Conception & Développement : Baudouin d'Aumeries
Co-Programmation & Développement : Marc-Olivier Méhu
Soutien technique & logistique : Manuel Goepfert

Contact : metmap@orbifly.com




SOURCES & CREDITS :

   NOAA